Detalii statie AGRICHIM STEFAN CEL MARE [0000198F]

Toti senzorii

Date Temperatura solului [C]Precipitatii [mm]Voltaj baterie [mV]HC Air temperature [C]HC Relative humidity [%]Punctul de roua [C]
medieminmaxsumaultimamedieminmaxmediemediemin
2018-08-12 11:00:00 21.3 21.3 21.5 0 7264 28.93 26.93 31.1 0 0 0
2018-08-12 12:00:00 21.6 21.4 22 0 7264 31.19 29.6 32.36 0 0 0
2018-08-12 13:00:00 22.4 22.1 22.8 0 7254 31.83 31.33 32.34 0 0 0
2018-08-12 14:00:00 23.1 22.8 23.6 0 7264 32.16 31.54 32.88 0 0 0
2018-08-12 15:00:00 23.8 23.6 24.2 0 7264 31.88 31.39 32.53 0 0 0
2018-08-12 16:00:00 24.4 24.2 24.7 0 7206 31.53 30.38 32.46 0 0 0
2018-08-12 17:00:00 24.8 24.6 25 0 7186 29.43 28.71 30.74 0 0 0
2018-08-12 18:00:00 24.8 24.8 25 0 7080 28 27.18 28.64 0 0 0
2018-08-12 19:00:00 24.6 24.5 24.7 0 7020 26.05 24.98 27.05 0 0 0
2018-08-12 20:00:00 24.4 24.3 24.6 0 6932 23.6 22.67 24.76 0 0 0
2018-08-12 21:00:00 24.2 24 24.4 0 6914 21.58 21.03 22.46 0 0 0
2018-08-12 22:00:00 23.9 23.6 24.2 0 6894 20.06 19.2 20.87 0 0 0
2018-08-12 23:00:00 23.5 23.3 23.8 0 6874 18.08 17.34 19 0 0 0
2018-08-13 00:00:00 23.2 23.1 23.4 0 6874 16.96 16.55 17.44 0 0 0
2018-08-13 01:00:00 22.9 22.7 23 0 6854 16.5 16.31 16.92 0 0 0
2018-08-13 02:00:00 22.6 22.4 22.8 0 6854 15.77 15.45 16.24 0 0 0
2018-08-13 03:00:00 22.3 22.1 22.5 0 6854 15.38 15.23 15.5 0 0 0
2018-08-13 04:00:00 22 21.8 22.1 0 6834 14.64 14.17 15.17 0 0 0
2018-08-13 05:00:00 21.8 21.7 22 0 6844 14.24 13.88 14.59 0 0 0
2018-08-13 06:00:00 21.5 21.4 21.8 0 6834 14.74 14.13 15.42 0 0 0
2018-08-13 07:00:00 21.3 21.3 21.5 0 6864 16.73 15.65 18.38 0 0 0
2018-08-13 08:00:00 21.2 21.2 21.4 0 6894 20.49 18.58 22.63 0 0 0
2018-08-13 09:00:00 21.2 21.2 21.3 0 6972 23.37 22.76 24 0 0 0
2018-08-13 10:00:00 21.2 21.2 21.3 0 7196 25.33 24.35 26.51 0 0 0
2018-08-13 11:00:00 21.2 21.2 21.4 0 7264 29.32 26.95 31.28 0 0 0
2018-08-13 12:00:00 21.6 21.3 22 0 7254 31.98 31.16 32.58 0 0 0
2018-08-13 13:00:00 22.3 21.8 22.8 0 7264 32.46 31.86 33.13 0 0 0
2018-08-13 14:00:00 23.1 22.9 23.5 0 7264 32.77 31.93 33.63 0 0 0
2018-08-13 15:00:00 23.9 23.7 24.3 0 7264 32.66 32.09 33.17 0 0 0
2018-08-13 16:00:00 24.5 24.2 24.8 0 7206 33.14 32.4 34.03 0 0 0
2018-08-13 17:00:00 24.9 24.7 25.1 0 7060 30.82 30.01 32.46 0 0 0
2018-08-13 18:00:00 25 24.9 25.3 0 7030 29.14 28.38 29.88 0 0 0
2018-08-13 19:00:00 24.7 24.5 25 0 6992 27.16 25.99 28.25 0 0 0
2018-08-13 20:00:00 24.5 24.3 24.7 0 6914 24.37 23.26 25.66 0 0 0
2018-08-13 21:00:00 24.2 24 24.3 0 6894 22.01 20.97 22.95 0 0 0
2018-08-13 22:00:00 23.8 23.6 24.1 0 6884 20.61 20.43 20.81 0 0 0
2018-08-13 23:00:00 23.5 23.2 23.8 0 6874 19.86 18.75 20.49 0 0 0
2018-08-14 00:00:00 23.1 23 23.4 0 6874 17.97 17.31 18.88 0 0 0
2018-08-14 01:00:00 22.8 22.7 22.9 0 6854 16.28 15.86 16.98 0 0 0
2018-08-14 02:00:00 22.5 22.3 22.8 0 6854 15.83 15.44 16.08 0 0 0
2018-08-14 03:00:00 22.2 22.1 22.4 0 6844 14.97 14.56 15.35 0 0 0
2018-08-14 04:00:00 21.9 21.9 22.1 0 6834 14.64 14.55 14.74 0 0 0
2018-08-14 05:00:00 21.6 21.4 21.9 0 6826 14.04 13.32 14.71 0 0 0
2018-08-14 06:00:00 21.4 21.3 21.6 0 6826 13.79 13.61 14.04 0 0 0
2018-08-14 07:00:00 21.2 21.1 21.3 0 6854 15.4 14.16 17.23 0 0 0